Putnam, OK

2:40 AM CDT on September 03, 2014 (GMT -0500)
Custer City | Change Station
CLOSE
Current Station
Personal Weather Station
Location: Custer City, OK
Elevation: 1775 ft
Nearby Weather Stations

Elev 1775 ft 35.67 °N, 98.88 °W | Updated 6 seconds ago

Clear
Clear
78.1 °F
Feels Like 80 °F
N
0.0
Wind Variable Wind from SSE
Gusts 10.0 mph

Today
High -- | Low -- °F
--% Chance of Precip.
Yesterday
High -- | Low -- °F
Precip. -- in
7:09 AM 8:00 PM
First Quarter, 59% visible
Pressure 29.91 in
Visibility 10.0 miles
Clouds Clear
Heat Index 80 °F
Dew Point 68 °F
Humidity 72%
Rainfall 0.00 in
Snow Depth Not available.
UV 0 out of 12
Pollen 10.50 out of 12
Air Quality Not available.
Flu Activity Not available.
METAR KJWG 030715Z AUTO 14009KT 10SM CLR 25/22 A2991 RMK AO2 T02530216

More Conditions Fewer Conditions

Pressure 29.91 in
Visibility 10.0 miles
Clouds Clear
Heat Index 80 °F
Dew Point 68 °F
Humidity 72%
Rainfall 0.00 in
Snow Depth Not available.
UV 0 out of 12
Pollen 10.50 out of 12
Air Quality Not available.
Flu Activity Not available.
METAR KJWG 030715Z AUTO 14009KT 10SM CLR 25/22 A2991 RMK AO2 T02530216

More Conditions Fewer Conditions

10-Day Weather Forecast

Almanac

Astronomy

Sep. 03, 2014 Rise Set
Actual Time 7:09 AM CDT 8:00 PM CDT
Civil Twilight 6:43 AM CDT 8:26 PM CDT
Nautical Twilight 6:12 AM CDT 8:57 PM CDT
Astronomical Twilight 5:40 AM CDT 9:28 PM CDT
Moon 3:37 PM CDT 1:10 AM CDT
Length of Visible Light 13h 43m
Length of Day
12h 51m
Tomorrow will be 2m 12s shorter.
First Quarter, 59% of the Moon is Illuminated
Today
First Quarter
Sep 8
Full
Sep 15
Last Quarter
Sep 24
New
Oct 1
First Quarter

Today's Extremes

State Highs State Lows

Community

WunderPhotos

Upload Photos

1,749,899 photos uploaded!

Nearby

Snow Depth

Station Depth Elevation
No new snow has been reported.

Earthquake Activity

City Distance Mag. Time & Date
Helena, Oklahoma 55 miles 3.2 3:05 AM CDT
2014-09-02
Medford, Oklahoma 82 miles 3.3 11:58 PM CDT
2014-09-01
Perry, Oklahoma 89 miles 3.1 6:46 AM CDT
2014-09-01
Jones, Oklahoma 94 miles 3.1 1:49 PM CDT
2014-08-31
Minimum magnitude displayed is 2.5.

Coastal Water Temperatures

Place Temperature
No Stations Reporting

Nearby Weather Stations